EWG3UE EDDL-EDDC
Flight info
| Callsign | EWG3UE |
|---|---|
| Flight time | N/A |
| Altitude | 23000 |
| Route | NUDGO5Z/05R NUDGO Z858 BERDI Z21 DRN |
| Aircraft | A319/M-SDE3FGHIRWY/LB1 |
Departure
| Time | 2026-05-07 18:01 |
|---|---|
| Airport | Düsseldorf Airport (EDDL) |
Arrival
| Time | N/A |
|---|---|
| Airport | Dresden Airport (EDDC) |
| Time | Latitude | Longitude | Altitude | Speed | Heading |
|---|---|---|---|---|---|
| 2026-05-07 17:30 | 51.28106 | 6.76719 | 131 ft | 0 kts | 276° |
| 2026-05-07 17:49 | 51.28106 | 6.76722 | 130 ft | 2 kts | 276° |
| 2026-05-07 17:49 | 51.28105 | 6.76763 | 128 ft | 4 kts | 258° |
| 2026-05-07 17:50 | 51.28115 | 6.76802 | 125 ft | 4 kts | 229° |
| 2026-05-07 17:50 | 51.28135 | 6.76826 | 127 ft | 4 kts | 195° |
| 2026-05-07 17:50 | 51.28158 | 6.76833 | 129 ft | 4 kts | 188° |
| 2026-05-07 17:50 | 51.28185 | 6.76839 | 128 ft | 3 kts | 186° |
| 2026-05-07 17:51 | 51.28206 | 6.76843 | 128 ft | 4 kts | 186° |
| 2026-05-07 17:51 | 51.28233 | 6.76848 | 130 ft | 4 kts | 186° |
| 2026-05-07 17:51 | 51.28259 | 6.76853 | 130 ft | 4 kts | 186° |
| 2026-05-07 17:51 | 51.28282 | 6.76857 | 130 ft | 4 kts | 188° |
| 2026-05-07 17:52 | 51.28307 | 6.76868 | 128 ft | 4 kts | 213° |
| 2026-05-07 17:52 | 51.28327 | 6.76896 | 127 ft | 4 kts | 232° |
| 2026-05-07 17:52 | 51.28341 | 6.76925 | 124 ft | 4 kts | 232° |
| 2026-05-07 17:52 | 51.28357 | 6.76959 | 124 ft | 4 kts | 232° |
| 2026-05-07 17:53 | 51.28366 | 6.76978 | 125 ft | 0 kts | 233° |
| 2026-05-07 17:54 | 51.28366 | 6.76977 | 129 ft | 0 kts | 233° |
| 2026-05-07 17:55 | 51.28356 | 6.76952 | 126 ft | 6 kts | 242° |
| 2026-05-07 17:55 | 51.28367 | 6.76873 | 126 ft | 9 kts | 316° |
| 2026-05-07 17:55 | 51.28425 | 6.76803 | 125 ft | 11 kts | 322° |
| 2026-05-07 17:55 | 51.28454 | 6.76710 | 126 ft | 10 kts | 256° |
| 2026-05-07 17:56 | 51.28405 | 6.76600 | 124 ft | 15 kts | 232° |
| 2026-05-07 17:56 | 51.28334 | 6.76449 | 123 ft | 19 kts | 233° |
| 2026-05-07 17:56 | 51.28248 | 6.76269 | 127 ft | 20 kts | 232° |
| 2026-05-07 17:56 | 51.28164 | 6.76093 | 129 ft | 20 kts | 233° |
| 2026-05-07 17:57 | 51.28084 | 6.75926 | 127 ft | 19 kts | 232° |
| 2026-05-07 17:57 | 51.28031 | 6.75814 | 126 ft | 19 kts | 232° |
| 2026-05-07 17:57 | 51.27921 | 6.75583 | 127 ft | 19 kts | 233° |
| 2026-05-07 17:57 | 51.27855 | 6.75446 | 127 ft | 10 kts | 232° |
| 2026-05-07 17:58 | 51.27840 | 6.75363 | 126 ft | 8 kts | 292° |
| 2026-05-07 17:58 | 51.27886 | 6.75314 | 124 ft | 8 kts | 334° |
| 2026-05-07 17:58 | 51.27945 | 6.75268 | 119 ft | 10 kts | 334° |
| 2026-05-07 17:58 | 51.28008 | 6.75300 | 120 ft | 9 kts | 44° |
| 2026-05-07 17:59 | 51.28024 | 6.75331 | 122 ft | 0 kts | 53° |
| 2026-05-07 18:00 | 51.28024 | 6.75332 | 123 ft | 0 kts | 53° |
| 2026-05-07 18:00 | 51.28062 | 6.75412 | 124 ft | 36 kts | 53° |
| 2026-05-07 18:00 | 51.28376 | 6.76070 | 127 ft | 110 kts | 53° |
| 2026-05-07 18:01 | 51.28962 | 6.77301 | 189 ft | 161 kts | 53° |
| 2026-05-07 18:01 | 51.29649 | 6.78729 | 865 ft | 162 kts | 52° |
| 2026-05-07 18:01 | 51.30339 | 6.80175 | 1603 ft | 166 kts | 52° |
| 2026-05-07 18:01 | 51.31073 | 6.81728 | 2113 ft | 185 kts | 53° |
| 2026-05-07 18:02 | 51.32812 | 6.85420 | 2966 ft | 232 kts | 52° |
| 2026-05-07 18:02 | 51.33824 | 6.87587 | 3579 ft | 252 kts | 53° |
| 2026-05-07 18:02 | 51.34771 | 6.89760 | 4468 ft | 259 kts | 59° |